Ellicott, Colorado
Current Conditions -  °F | °C
As of 1:38 AM on Friday 28 Nov 2014 (Local Time) from KSHM Reporting Station
Clear Clear  
Wind Chill: 50°   Ceiling: Unl
Heat Index: 50°   Visibility: 10mi
Dew Point: 14°   Wind: 15mph
Humidity: 24%   Direction: 230°SW
Pressure: 30.14"   Gusts: 23mph
Location:  39.0026°N, 104.316°W
Report Text: KSHM 280838Z AUTO 23013G20KT 10SM CLR 10/M10 A3014 RMK AO2 WSHFT 33
Loading
Personal Weather Stations






























Interactive Weather Map New forecast layout! Learn more

10-Day Weather Forecast

Advertisements
Track Severe Weather on mobile